Tompkins, Illinois
Current Conditions -  °F | °C
As of 7:15 AM on Monday 22 Dec 2014 (Local Time) from KGBG Reporting Station
Overcast Overcast  
Wind Chill: 29°   Ceiling: 7500
Heat Index: 35°   Visibility: 7mi
Dew Point: 32°   Wind: 8mph
Humidity: 89%   Direction: 110°ESE
Pressure: 29.79"   Gusts: NA
Location:  40.8511°N, 90.7293°W
Report Text: KGBG 221315Z AUTO 11007KT 7SM SCT040 OVC075 02/00 A2979 RMK AO2 T00170000
Loading
Personal Weather Stations






























Interactive Weather Map New forecast layout! Learn more

10-Day Weather Forecast

Advertisements
Track Severe Weather on mobile